createdAt,value
2023-05-08T00:01:24.062Z,66.34
2023-05-08T00:03:52.317Z,66.35
2023-05-08T00:06:19.629Z,66.41
2023-05-08T00:08:46.535Z,66.42
2023-05-08T00:11:13.665Z,66.60
2023-05-08T00:13:41.638Z,66.69
2023-05-08T00:16:09.870Z,66.52
2023-05-08T00:18:39.034Z,66.96
2023-05-08T00:21:06.492Z,66.84
2023-05-08T00:23:34.315Z,66.91
2023-05-08T00:26:01.316Z,66.82
2023-05-08T00:28:28.381Z,66.74
2023-05-08T00:30:55.355Z,66.53
2023-05-08T00:33:22.442Z,66.76
2023-05-08T00:35:49.498Z,66.76
2023-05-08T00:38:16.420Z,66.76
2023-05-08T00:40:46.062Z,66.52
2023-05-08T00:43:13.066Z,66.91
2023-05-08T00:45:40.074Z,66.89
2023-05-08T00:48:07.743Z,66.93
2023-05-08T00:50:35.324Z,66.87
2023-05-08T00:53:04.204Z,67.06
2023-05-08T00:55:32.062Z,66.86
2023-05-08T00:57:59.159Z,66.75
2023-05-08T01:00:26.183Z,66.85
2023-05-08T01:02:53.274Z,66.96
2023-05-08T01:05:20.795Z,67.38
2023-05-08T01:07:48.286Z,66.73
2023-05-08T01:10:16.700Z,66.81
2023-05-08T01:13:08.571Z,67.12
2023-05-08T01:15:41.650Z,67.17
2023-05-08T01:18:28.508Z,67.07
2023-05-08T01:21:18.043Z,67.35
2023-05-08T01:23:57.740Z,66.93
2023-05-08T01:27:05.699Z,67.08
2023-05-08T01:29:44.351Z,67.08
2023-05-08T01:32:30.680Z,67.16
2023-05-08T01:35:06.927Z,67.20
2023-05-08T01:38:10.186Z,67.10
2023-05-08T01:40:53.214Z,66.98
2023-05-08T01:43:42.078Z,67.15
2023-05-08T01:46:18.381Z,66.81
2023-05-08T01:49:00.872Z,67.11
2023-05-08T01:51:29.404Z,67.08
2023-05-08T01:54:01.057Z,66.99
2023-05-08T01:56:30.270Z,67.03
2023-05-08T01:58:58.615Z,66.95
2023-05-08T02:01:26.617Z,66.84
2023-05-08T02:03:56.670Z,67.16
2023-05-08T02:06:23.849Z,67.04
2023-05-08T02:08:51.837Z,67.29
2023-05-08T02:11:20.047Z,67.01
2023-05-08T02:13:48.507Z,66.87
2023-05-08T02:16:16.045Z,66.90
2023-05-08T02:18:52.716Z,66.83
2023-05-08T02:21:20.329Z,67.45
2023-05-08T02:23:47.449Z,67.23
2023-05-08T02:26:16.068Z,67.23
2023-05-08T02:28:43.450Z,67.33
2023-05-08T02:31:11.606Z,67.36
2023-05-08T02:33:42.652Z,67.61
2023-05-08T02:36:11.820Z,67.40
2023-05-08T02:38:40.092Z,67.67
2023-05-08T02:41:08.358Z,67.64
2023-05-08T02:43:35.843Z,67.86
2023-05-08T02:46:27.996Z,67.54
2023-05-08T02:49:03.868Z,67.93
2023-05-08T02:51:55.656Z,67.89
2023-05-08T02:54:40.694Z,67.99
2023-05-08T02:57:21.710Z,67.87
2023-05-08T03:00:03.753Z,68.23
2023-05-08T03:02:38.602Z,68.29
2023-05-08T03:05:15.862Z,68.27
2023-05-08T03:07:43.250Z,68.53
2023-05-08T03:10:16.332Z,68.16
2023-05-08T03:12:47.198Z,68.32
2023-05-08T03:15:24.173Z,68.93
2023-05-08T03:17:54.271Z,69.02
2023-05-08T03:20:25.017Z,69.07
2023-05-08T03:22:54.169Z,69.34
2023-05-08T03:25:21.681Z,69.30
2023-05-08T03:27:49.413Z,69.50
2023-05-08T03:30:17.325Z,69.52
2023-05-08T03:32:53.552Z,70.00
2023-05-08T03:35:21.895Z,69.96
2023-05-08T03:37:49.291Z,69.70
2023-05-08T03:40:17.746Z,69.76
2023-05-08T03:42:45.227Z,70.15
2023-05-08T03:45:14.428Z,69.97
2023-05-08T03:47:42.462Z,69.90
2023-05-08T03:50:10.464Z,70.08
2023-05-08T03:52:38.726Z,70.31
2023-05-08T03:55:06.697Z,70.32
2023-05-08T03:57:42.340Z,69.95
2023-05-08T04:01:02.318Z,69.74
2023-05-08T04:03:50.599Z,69.76
2023-05-08T04:06:28.720Z,69.77
2023-05-08T04:09:26.160Z,69.93
2023-05-08T04:12:02.912Z,69.88
2023-05-08T04:14:35.854Z,69.88
2023-05-08T04:17:04.915Z,70.16
2023-05-08T04:19:34.644Z,70.21
2023-05-08T04:22:08.726Z,69.66
2023-05-08T04:24:42.564Z,70.12
2023-05-08T04:27:12.185Z,69.85
2023-05-08T04:29:41.366Z,70.22
2023-05-08T04:32:09.593Z,69.72
2023-05-08T04:34:37.269Z,70.00
2023-05-08T04:37:06.943Z,69.74
2023-05-08T04:39:34.858Z,69.88
2023-05-08T04:42:03.967Z,69.85
2023-05-08T04:44:33.647Z,69.90
2023-05-08T04:47:00.585Z,69.77
2023-05-08T04:49:28.065Z,69.91
2023-05-08T04:51:55.195Z,69.75
2023-05-08T04:54:22.091Z,69.86
2023-05-08T04:56:49.814Z,69.74
2023-05-08T04:59:16.881Z,69.67
2023-05-08T05:01:47.006Z,69.97
2023-05-08T05:04:14.333Z,69.46
2023-05-08T05:06:41.417Z,69.78
2023-05-08T05:09:09.195Z,69.89
2023-05-08T05:11:36.234Z,69.72
2023-05-08T05:14:03.236Z,69.57
2023-05-08T05:16:30.174Z,69.83
2023-05-08T05:18:57.120Z,69.68
2023-05-08T05:21:24.108Z,69.87
2023-05-08T05:23:51.305Z,69.68
2023-05-08T05:26:19.418Z,69.54
2023-05-08T05:28:46.363Z,69.42
2023-05-08T05:31:13.622Z,69.26
2023-05-08T05:33:40.848Z,69.28
2023-05-08T05:36:08.094Z,69.25
2023-05-08T05:38:35.026Z,69.12
2023-05-08T05:41:02.163Z,69.37
2023-05-08T05:43:29.136Z,69.11
2023-05-08T05:45:56.465Z,68.77
2023-05-08T05:48:24.267Z,68.69
2023-05-08T05:50:51.136Z,68.46
2023-05-08T05:53:18.099Z,68.22
2023-05-08T05:55:45.332Z,67.90
2023-05-08T05:58:12.242Z,67.63
2023-05-08T06:00:39.090Z,67.71
2023-05-08T06:03:06.222Z,67.59
2023-05-08T06:05:34.885Z,67.69
2023-05-08T06:08:01.814Z,67.62
2023-05-08T06:10:29.839Z,67.04
2023-05-08T06:12:57.220Z,67.07
2023-05-08T06:15:24.744Z,67.15
2023-05-08T06:17:52.989Z,67.04
2023-05-08T06:20:20.053Z,66.70
2023-05-08T06:22:46.934Z,66.59
2023-05-08T06:25:14.016Z,66.58
2023-05-08T06:27:41.347Z,66.43
2023-05-08T06:30:08.833Z,66.57
2023-05-08T06:32:36.075Z,66.50
2023-05-08T06:35:03.522Z,66.19
2023-05-08T06:37:31.174Z,66.19
2023-05-08T06:40:10.819Z,65.89
2023-05-08T06:42:39.841Z,66.03
2023-05-08T06:45:07.839Z,65.71
2023-05-08T06:47:35.440Z,65.76
2023-05-08T06:50:02.361Z,65.83
2023-05-08T06:52:29.510Z,65.81
2023-05-08T06:54:56.665Z,65.49
2023-05-08T06:57:24.583Z,65.70
2023-05-08T06:59:52.138Z,65.41
2023-05-08T07:02:19.373Z,65.25
2023-05-08T07:04:47.084Z,65.20
2023-05-08T07:07:14.438Z,64.71
2023-05-08T07:09:41.628Z,64.10
2023-05-08T07:12:09.062Z,63.97
2023-05-08T07:14:35.999Z,63.81
2023-05-08T07:17:07.876Z,63.54
2023-05-08T07:19:38.482Z,63.10
2023-05-08T07:22:06.974Z,62.90
2023-05-08T07:24:33.981Z,62.43
2023-05-08T07:27:01.535Z,61.93
2023-05-08T07:29:30.372Z,61.49
2023-05-08T07:31:57.812Z,60.92
2023-05-08T07:34:25.165Z,60.58
2023-05-08T07:36:52.074Z,60.16
2023-05-08T07:39:19.613Z,60.08
2023-05-08T07:41:49.100Z,60.07
2023-05-08T07:44:16.679Z,59.60
2023-05-08T07:46:43.619Z,59.17
2023-05-08T07:49:10.531Z,59.10
2023-05-08T07:51:37.788Z,59.14
2023-05-08T07:54:04.779Z,58.44
2023-05-08T07:56:31.748Z,58.63
2023-05-08T07:58:58.651Z,58.04
2023-05-08T08:01:25.971Z,57.69
2023-05-08T08:03:54.622Z,57.17
2023-05-08T08:06:21.678Z,57.25
2023-05-08T08:08:48.624Z,56.87
2023-05-08T08:11:15.720Z,56.45
2023-05-08T08:13:42.854Z,55.95
2023-05-08T08:16:09.730Z,55.51
2023-05-08T08:18:37.097Z,55.52
2023-05-08T08:21:08.120Z,55.18
2023-05-08T08:23:35.308Z,54.49
2023-05-08T08:26:02.150Z,54.01
2023-05-08T08:28:29.160Z,53.58
2023-05-08T08:30:56.529Z,53.63
2023-05-08T08:33:24.989Z,53.41
2023-05-08T08:35:52.287Z,53.60
2023-05-08T08:38:21.222Z,52.91
2023-05-08T08:40:48.191Z,53.04
2023-05-08T08:43:15.439Z,52.54
2023-05-08T08:45:42.962Z,53.02
2023-05-08T08:48:12.311Z,52.90
2023-05-08T08:50:43.614Z,52.67
2023-05-08T08:53:38.132Z,51.92
2023-05-08T08:56:06.432Z,52.13
2023-05-08T08:58:38.133Z,51.52
2023-05-08T09:01:07.570Z,51.18
2023-05-08T09:03:34.620Z,51.32
2023-05-08T09:06:01.845Z,51.50
2023-05-08T09:08:28.986Z,51.35
2023-05-08T09:10:56.616Z,50.94
2023-05-08T09:13:23.536Z,50.50
2023-05-08T09:15:51.072Z,50.29
2023-05-08T09:18:18.412Z,50.05
2023-05-08T09:20:45.402Z,49.10
2023-05-08T09:23:14.270Z,48.65
2023-05-08T09:25:44.402Z,48.28
2023-05-08T09:28:19.358Z,48.16
2023-05-08T09:30:57.180Z,47.73
2023-05-08T09:33:26.105Z,47.46
2023-05-08T09:35:53.976Z,46.76
2023-05-08T09:38:34.976Z,46.86
2023-05-08T09:41:14.887Z,46.53
2023-05-08T09:43:43.497Z,46.48
2023-05-08T09:46:19.669Z,46.31
2023-05-08T09:48:46.703Z,46.30
2023-05-08T09:51:13.751Z,45.81
2023-05-08T09:53:40.653Z,45.80
2023-05-08T09:56:07.644Z,45.50
2023-05-08T09:58:42.082Z,45.50
2023-05-08T10:01:28.438Z,45.48
2023-05-08T10:03:55.514Z,46.31
2023-05-08T10:06:22.612Z,46.14
2023-05-08T10:08:50.674Z,46.28
2023-05-08T10:11:19.715Z,45.86
2023-05-08T10:13:47.255Z,45.04
2023-05-08T10:16:16.426Z,45.18
2023-05-08T10:18:49.107Z,44.46
2023-05-08T10:21:17.787Z,44.72
2023-05-08T10:23:49.970Z,44.59
2023-05-08T10:26:21.987Z,44.62
2023-05-08T10:29:00.457Z,44.45
2023-05-08T10:31:32.300Z,43.87
2023-05-08T10:34:02.187Z,44.26
2023-05-08T10:36:31.124Z,44.47
2023-05-08T10:38:59.001Z,44.11
2023-05-08T10:41:27.043Z,43.56
2023-05-08T10:43:54.837Z,43.24
2023-05-08T10:46:27.429Z,43.46
2023-05-08T10:49:17.220Z,43.78
2023-05-08T10:52:17.947Z,43.59
2023-05-08T10:55:13.981Z,44.08
2023-05-08T10:57:41.393Z,43.90
2023-05-08T11:00:08.912Z,43.69
2023-05-08T11:02:38.136Z,43.79
2023-05-08T11:05:18.111Z,43.15
2023-05-08T11:07:55.320Z,43.26
2023-05-08T11:10:23.188Z,43.43
2023-05-08T11:12:50.981Z,43.36
2023-05-08T11:15:36.310Z,43.26
2023-05-08T11:18:08.180Z,42.92
2023-05-08T11:20:42.581Z,42.51
2023-05-08T11:23:32.813Z,42.42
2023-05-08T11:26:04.818Z,42.35
2023-05-08T11:28:56.022Z,42.40
2023-05-08T11:31:23.556Z,42.31
2023-05-08T11:33:50.530Z,42.65
2023-05-08T11:36:23.285Z,42.88
2023-05-08T11:39:20.783Z,42.33
2023-05-08T11:41:48.324Z,42.47
2023-05-08T11:44:23.005Z,42.00
2023-05-08T11:46:52.778Z,41.88
2023-05-08T11:49:24.957Z,41.82
2023-05-08T11:51:55.603Z,41.74
2023-05-08T11:54:23.151Z,42.25
2023-05-08T11:56:51.975Z,41.67
2023-05-08T11:59:19.364Z,41.63
2023-05-08T12:02:06.907Z,41.75
2023-05-08T12:04:44.631Z,41.55
2023-05-08T12:07:12.088Z,41.27
2023-05-08T12:09:39.141Z,41.22
2023-05-08T12:12:06.172Z,41.56
2023-05-08T12:14:36.756Z,41.33
2023-05-08T12:17:05.036Z,40.79
2023-05-08T12:19:32.321Z,40.46
2023-05-08T12:21:59.245Z,39.83
2023-05-08T12:24:27.078Z,40.10
2023-05-08T12:26:56.328Z,40.13
2023-05-08T12:29:24.977Z,39.78
2023-05-08T12:31:52.212Z,38.89
2023-05-08T12:34:19.313Z,38.66
2023-05-08T12:36:46.319Z,38.75
2023-05-08T12:39:17.997Z,38.44
2023-05-08T12:41:49.980Z,38.10
2023-05-08T12:44:18.945Z,38.12
2023-05-08T12:46:59.710Z,38.15
2023-05-08T12:49:29.135Z,37.85
2023-05-08T12:52:07.039Z,37.79
2023-05-08T12:54:41.956Z,37.96
2023-05-08T12:57:12.739Z,37.52
2023-05-08T12:59:40.976Z,37.21
2023-05-08T13:02:16.387Z,36.80
2023-05-08T13:04:44.180Z,36.06
2023-05-08T13:07:11.906Z,35.87
2023-05-08T13:09:39.528Z,35.95
2023-05-08T13:12:09.730Z,35.92
2023-05-08T13:14:36.582Z,35.96
2023-05-08T13:17:03.735Z,35.75
2023-05-08T13:19:30.870Z,35.98
2023-05-08T13:21:57.783Z,35.47
2023-05-08T13:24:26.077Z,35.52
2023-05-08T13:26:53.018Z,35.29
2023-05-08T13:29:22.300Z,34.82
2023-05-08T13:31:50.595Z,35.22
2023-05-08T13:34:17.922Z,34.98
2023-05-08T13:36:44.859Z,34.56
2023-05-08T13:39:11.956Z,33.36
2023-05-08T13:41:38.895Z,33.99
2023-05-08T13:44:06.126Z,33.89
2023-05-08T13:46:33.213Z,34.38
2023-05-08T13:49:00.212Z,33.51
2023-05-08T13:51:28.602Z,33.40
2023-05-08T13:53:55.995Z,33.42
2023-05-08T13:56:23.205Z,32.86
2023-05-08T13:58:50.073Z,32.87
2023-05-08T14:01:26.499Z,32.68
2023-05-08T14:03:55.716Z,32.13
2023-05-08T14:06:22.828Z,31.55
2023-05-08T14:08:51.479Z,31.59
2023-05-08T14:11:19.848Z,30.74
2023-05-08T14:13:46.740Z,30.93
2023-05-08T14:16:15.328Z,30.74
2023-05-08T14:18:42.420Z,31.11
2023-05-08T14:21:09.393Z,31.00
2023-05-08T14:23:36.357Z,31.23
2023-05-08T14:26:03.367Z,30.99
2023-05-08T14:28:30.363Z,30.27
2023-05-08T14:30:57.243Z,30.53
2023-05-08T14:33:24.191Z,29.83
2023-05-08T14:35:51.092Z,29.16
2023-05-08T14:38:18.036Z,29.55
2023-05-08T14:40:45.250Z,29.48
2023-05-08T14:43:12.185Z,28.79
2023-05-08T14:45:39.462Z,28.32
2023-05-08T14:48:07.020Z,27.84
2023-05-08T14:50:34.240Z,27.63
2023-05-08T14:53:01.825Z,27.56
2023-05-08T14:55:29.046Z,27.98
2023-05-08T14:57:56.612Z,27.71
2023-05-08T15:00:23.660Z,27.25
2023-05-08T15:02:50.690Z,27.04
2023-05-08T15:05:19.969Z,26.60
2023-05-08T15:07:49.924Z,26.02
2023-05-08T15:10:16.947Z,26.05
2023-05-08T15:12:43.944Z,25.87
2023-05-08T15:15:11.511Z,25.72
2023-05-08T15:17:41.717Z,25.44
2023-05-08T15:20:09.553Z,25.12
2023-05-08T15:22:37.235Z,24.82
2023-05-08T15:25:04.978Z,24.66
2023-05-08T15:27:31.956Z,25.11
2023-05-08T15:30:00.179Z,24.49
2023-05-08T15:32:27.478Z,24.91
2023-05-08T15:34:54.438Z,25.30
2023-05-08T15:37:21.354Z,26.88
2023-05-08T15:39:49.992Z,26.24
2023-05-08T15:42:17.234Z,25.00
2023-05-08T15:44:54.465Z,24.97
2023-05-08T15:47:23.615Z,24.73
2023-05-08T15:49:51.254Z,24.78
2023-05-08T15:52:20.020Z,25.07
2023-05-08T15:54:47.477Z,24.85
2023-05-08T15:57:14.901Z,25.29
2023-05-08T15:59:42.037Z,25.20
2023-05-08T16:02:09.923Z,24.67
2023-05-08T16:04:36.950Z,24.92
2023-05-08T16:07:04.294Z,24.97
2023-05-08T16:09:33.988Z,25.14
2023-05-08T16:12:01.475Z,26.54
2023-05-08T16:14:28.510Z,26.95
2023-05-08T16:16:55.830Z,27.54
2023-05-08T16:19:22.650Z,27.65
2023-05-08T16:21:49.669Z,27.96
2023-05-08T16:24:16.577Z,27.97
2023-05-08T16:26:43.480Z,28.14
2023-05-08T16:29:10.384Z,28.34
2023-05-08T16:31:37.539Z,28.58
2023-05-08T16:34:04.462Z,28.52
2023-05-08T16:36:31.410Z,28.80
2023-05-08T16:38:58.374Z,29.04
2023-05-08T16:41:25.365Z,29.05
2023-05-08T16:43:53.023Z,29.02
2023-05-08T16:46:29.233Z,29.27
2023-05-08T16:48:58.981Z,29.25
2023-05-08T16:51:26.922Z,28.77
2023-05-08T16:53:54.964Z,29.03
2023-05-08T16:56:23.409Z,29.28
2023-05-08T16:58:50.378Z,29.28
2023-05-08T17:01:17.395Z,29.47
2023-05-08T17:03:44.709Z,29.25
2023-05-08T17:06:11.702Z,29.41
2023-05-08T17:08:38.675Z,29.40
2023-05-08T17:11:05.701Z,29.43
2023-05-08T17:13:32.644Z,29.93
2023-05-08T17:16:00.341Z,30.04
2023-05-08T17:18:27.540Z,30.16
2023-05-08T17:20:54.496Z,30.22
2023-05-08T17:23:21.409Z,30.04
2023-05-08T17:25:48.368Z,30.26
2023-05-08T17:28:15.430Z,30.59
2023-05-08T17:30:42.504Z,30.68
2023-05-08T17:33:09.671Z,31.09
2023-05-08T17:35:36.629Z,30.50
2023-05-08T17:38:03.527Z,30.90
2023-05-08T17:40:30.873Z,31.05
2023-05-08T17:43:00.933Z,30.76
2023-05-08T17:45:27.923Z,30.93
2023-05-08T17:47:55.713Z,31.46
2023-05-08T17:50:23.094Z,31.47
2023-05-08T17:52:51.687Z,31.83
2023-05-08T17:55:18.689Z,31.57
2023-05-08T17:57:45.528Z,32.31
2023-05-08T18:00:13.351Z,32.29
2023-05-08T18:02:40.575Z,32.76
2023-05-08T18:05:08.002Z,32.31
2023-05-08T18:07:35.049Z,32.56
2023-05-08T18:10:02.132Z,33.03
2023-05-08T18:12:29.861Z,33.12
2023-05-08T18:14:56.850Z,33.44
2023-05-08T18:17:23.876Z,33.65
2023-05-08T18:19:51.001Z,34.13
2023-05-08T18:22:18.351Z,34.10
2023-05-08T18:24:45.930Z,34.62
2023-05-08T18:27:13.077Z,34.76
2023-05-08T18:29:40.066Z,35.34
2023-05-08T18:32:07.059Z,35.44
2023-05-08T18:34:34.071Z,36.51
2023-05-08T18:37:02.462Z,37.13
2023-05-08T18:39:29.433Z,38.29
2023-05-08T18:41:57.045Z,38.85
2023-05-08T18:44:23.929Z,39.84
2023-05-08T18:46:51.532Z,39.97
2023-05-08T18:49:19.708Z,40.31
2023-05-08T18:51:46.843Z,41.26
2023-05-08T18:54:14.147Z,41.79
2023-05-08T18:56:41.152Z,41.97
2023-05-08T18:59:08.998Z,42.18
2023-05-08T19:01:36.050Z,42.49
2023-05-08T19:04:04.566Z,42.68
2023-05-08T19:06:31.865Z,42.55
2023-05-08T19:08:58.804Z,42.97
2023-05-08T19:11:26.693Z,42.96
2023-05-08T19:13:53.713Z,43.40
2023-05-08T19:16:20.701Z,43.39
2023-05-08T19:18:47.680Z,43.76
2023-05-08T19:21:14.818Z,43.74
2023-05-08T19:23:41.748Z,44.13
2023-05-08T19:26:08.924Z,44.22
2023-05-08T19:28:36.126Z,44.64
2023-05-08T19:31:03.139Z,44.88
2023-05-08T19:33:30.337Z,44.65
2023-05-08T19:35:57.378Z,44.75
2023-05-08T19:38:24.275Z,44.85
2023-05-08T19:40:56.525Z,45.06
2023-05-08T19:43:25.890Z,45.10
2023-05-08T19:45:53.239Z,45.39
2023-05-08T19:48:20.516Z,45.30
2023-05-08T19:50:47.701Z,45.57
2023-05-08T19:53:14.676Z,45.71
2023-05-08T19:55:41.824Z,45.64
2023-05-08T19:58:08.736Z,45.91
2023-05-08T20:00:35.941Z,46.35
2023-05-08T20:03:03.092Z,46.31
2023-05-08T20:05:30.267Z,46.48
2023-05-08T20:07:57.166Z,47.07
2023-05-08T20:10:24.324Z,46.80
2023-05-08T20:12:51.585Z,47.12
2023-05-08T20:15:18.549Z,47.05
2023-05-08T20:17:45.648Z,47.42
2023-05-08T20:20:13.140Z,47.70
2023-05-08T20:22:40.482Z,47.51
2023-05-08T20:25:07.689Z,47.79
2023-05-08T20:27:34.734Z,47.62
2023-05-08T20:30:01.675Z,47.69
2023-05-08T20:32:28.956Z,48.03
2023-05-08T20:34:55.993Z,48.03
2023-05-08T20:37:23.032Z,48.01
2023-05-08T20:39:50.340Z,48.46
2023-05-08T20:42:17.249Z,48.25
2023-05-08T20:44:44.383Z,48.41
2023-05-08T20:47:11.336Z,48.74
2023-05-08T20:49:38.230Z,49.23
2023-05-08T20:52:05.852Z,49.39
2023-05-08T20:54:32.796Z,49.37
2023-05-08T20:56:59.785Z,49.35
2023-05-08T20:59:26.648Z,49.36
2023-05-08T21:01:53.515Z,49.92
2023-05-08T21:04:20.568Z,49.67
2023-05-08T21:06:47.454Z,49.95
2023-05-08T21:09:14.347Z,49.85
2023-05-08T21:11:41.227Z,50.41
2023-05-08T21:14:08.160Z,50.28
2023-05-08T21:16:36.255Z,50.10
2023-05-08T21:19:03.214Z,50.41
2023-05-08T21:21:30.114Z,50.31
2023-05-08T21:23:57.324Z,50.41
2023-05-08T21:26:24.255Z,50.56
2023-05-08T21:28:53.899Z,50.28
2023-05-08T21:31:20.794Z,50.46
2023-05-08T21:33:47.756Z,50.55
2023-05-08T21:36:14.763Z,50.84
2023-05-08T21:38:41.796Z,50.99
2023-05-08T21:41:09.225Z,50.73
2023-05-08T21:43:36.450Z,50.84
2023-05-08T21:46:06.453Z,51.08
2023-05-08T21:48:34.049Z,50.83
2023-05-08T21:51:01.616Z,51.24
2023-05-08T21:53:28.648Z,51.46
2023-05-08T21:55:55.630Z,51.51
2023-05-08T21:58:22.609Z,51.34
2023-05-08T22:00:49.498Z,51.44
2023-05-08T22:03:16.450Z,51.59
2023-05-08T22:05:43.669Z,51.74
2023-05-08T22:08:10.921Z,51.48
2023-05-08T22:10:37.820Z,51.83
2023-05-08T22:13:06.641Z,51.82
2023-05-08T22:15:33.777Z,51.85
2023-05-08T22:18:02.988Z,51.95
2023-05-08T22:20:30.202Z,52.47
2023-05-08T22:22:57.292Z,52.17
2023-05-08T22:25:25.467Z,52.27
2023-05-08T22:27:53.738Z,52.07
2023-05-08T22:30:20.659Z,52.43
2023-05-08T22:32:55.567Z,52.42
2023-05-08T22:35:24.836Z,52.83
2023-05-08T22:37:52.670Z,52.81
2023-05-08T22:40:21.722Z,53.16
2023-05-08T22:42:48.780Z,53.02
2023-05-08T22:45:16.135Z,53.32
2023-05-08T22:47:43.887Z,53.05
2023-05-08T22:50:11.964Z,53.39
2023-05-08T22:52:39.560Z,53.56
2023-05-08T22:55:07.301Z,53.39
2023-05-08T22:57:34.356Z,53.70
2023-05-08T23:00:01.465Z,53.60
2023-05-08T23:02:33.284Z,53.86
2023-05-08T23:05:00.839Z,53.97
2023-05-08T23:07:28.803Z,53.64
2023-05-08T23:09:55.740Z,54.05
2023-05-08T23:12:22.754Z,53.98
2023-05-08T23:14:49.695Z,54.01
2023-05-08T23:17:16.618Z,53.96
2023-05-08T23:19:43.602Z,54.19
2023-05-08T23:22:10.550Z,53.99
2023-05-08T23:24:37.504Z,54.17
2023-05-08T23:27:04.541Z,54.20
2023-05-08T23:29:31.797Z,54.62
2023-05-08T23:31:59.862Z,54.70
2023-05-08T23:34:26.771Z,54.58
2023-05-08T23:36:53.939Z,54.80
2023-05-08T23:39:20.901Z,54.63
2023-05-08T23:41:48.086Z,54.55
2023-05-08T23:44:15.688Z,54.65
2023-05-08T23:46:43.285Z,54.67
2023-05-08T23:49:10.329Z,54.80
2023-05-08T23:51:37.530Z,54.79
2023-05-08T23:54:04.956Z,54.64
2023-05-08T23:56:31.835Z,54.81
2023-05-08T23:58:58.683Z,55.10
